createdAt,value
2018-07-05T00:00:50.907Z,21.05
2018-07-05T00:01:50.903Z,20.93
2018-07-05T00:02:50.881Z,20.99
2018-07-05T00:03:50.873Z,20.95
2018-07-05T00:04:50.859Z,20.90
2018-07-05T00:05:50.902Z,20.89
2018-07-05T00:06:50.845Z,20.87
2018-07-05T00:07:50.823Z,20.87
2018-07-05T00:08:50.814Z,20.86
2018-07-05T00:09:50.803Z,20.86
2018-07-05T00:10:50.785Z,20.83
2018-07-05T00:11:50.808Z,20.84
2018-07-05T00:12:50.782Z,20.84
2018-07-05T00:13:50.779Z,20.83
2018-07-05T00:14:50.739Z,20.86
2018-07-05T00:15:50.732Z,20.81
2018-07-05T00:16:50.728Z,20.74
2018-07-05T00:17:50.720Z,20.71
2018-07-05T00:18:50.698Z,20.69
2018-07-05T00:19:50.685Z,20.66
2018-07-05T00:20:50.669Z,20.64
2018-07-05T00:21:50.663Z,20.53
2018-07-05T00:22:50.657Z,20.47
2018-07-05T00:23:50.649Z,20.46
2018-07-05T00:24:50.625Z,20.41
2018-07-05T00:25:50.624Z,20.41
2018-07-05T00:26:50.647Z,20.46
2018-07-05T00:27:50.601Z,20.46
2018-07-05T00:28:50.583Z,20.49
2018-07-05T00:29:50.597Z,20.53
2018-07-05T00:30:50.554Z,20.47
2018-07-05T00:31:50.542Z,20.49
2018-07-05T00:32:50.575Z,20.58
2018-07-05T00:33:50.534Z,20.64
2018-07-05T00:34:50.534Z,20.65
2018-07-05T00:35:50.511Z,20.65
2018-07-05T00:36:50.490Z,20.65
2018-07-05T00:37:50.476Z,20.65
2018-07-05T00:38:50.468Z,20.61
2018-07-05T00:39:50.471Z,20.50
2018-07-05T00:40:50.457Z,20.54
2018-07-05T00:41:50.426Z,20.54
2018-07-05T00:42:50.422Z,20.51
2018-07-05T00:43:50.413Z,20.43
2018-07-05T00:44:50.397Z,20.49
2018-07-05T00:45:50.396Z,20.47
2018-07-05T00:46:50.392Z,20.47
2018-07-05T00:47:50.376Z,20.47
2018-07-05T00:48:50.352Z,20.47
2018-07-05T00:49:50.344Z,20.43
2018-07-05T00:50:50.386Z,20.33
2018-07-05T00:51:50.366Z,20.18
2018-07-05T00:52:50.366Z,20.16
2018-07-05T00:53:50.283Z,20.12
2018-07-05T00:54:50.279Z,20.15
2018-07-05T00:55:50.279Z,20.08
2018-07-05T00:56:50.268Z,20.10
2018-07-05T00:57:50.236Z,20.03
2018-07-05T00:58:50.230Z,20.10
2018-07-05T00:59:50.227Z,20.13
2018-07-05T01:00:50.213Z,20.05
2018-07-05T01:01:50.199Z,20.02
2018-07-05T01:02:50.201Z,20.02
2018-07-05T01:03:50.170Z,20.03
2018-07-05T01:04:50.158Z,20.06
2018-07-05T01:05:50.149Z,20.03
2018-07-05T01:06:50.137Z,19.88
2018-07-05T01:07:50.143Z,20.03
2018-07-05T01:08:50.114Z,19.97
2018-07-05T01:09:50.104Z,19.87
2018-07-05T01:10:50.086Z,19.78
2018-07-05T01:11:50.089Z,19.80
2018-07-05T01:12:50.067Z,19.83
2018-07-05T01:13:50.072Z,19.80
2018-07-05T01:14:50.036Z,19.75
2018-07-05T01:15:50.030Z,19.78
2018-07-05T01:16:50.028Z,19.73
2018-07-05T01:17:50.018Z,19.75
2018-07-05T01:18:50.000Z,19.75
2018-07-05T01:19:49.980Z,19.79
2018-07-05T01:20:49.963Z,19.69
2018-07-05T01:21:49.951Z,19.76
2018-07-05T01:22:49.958Z,19.76
2018-07-05T01:23:49.930Z,19.79
2018-07-05T01:24:49.923Z,19.72
2018-07-05T01:25:49.912Z,19.70
2018-07-05T01:26:49.890Z,19.61
2018-07-05T01:27:49.887Z,19.68
2018-07-05T01:28:49.874Z,19.66
2018-07-05T01:29:49.858Z,19.68
2018-07-05T01:30:49.859Z,19.68
2018-07-05T01:31:49.834Z,19.57
2018-07-05T01:32:49.826Z,19.40
2018-07-05T01:33:49.814Z,19.39
2018-07-05T01:34:49.796Z,19.39
2018-07-05T01:35:49.787Z,19.33
2018-07-05T01:36:49.776Z,19.38
2018-07-05T01:37:49.762Z,19.36
2018-07-05T01:38:49.760Z,19.36
2018-07-05T01:39:49.734Z,19.38
2018-07-05T01:40:49.742Z,19.42
2018-07-05T01:41:49.717Z,19.43
2018-07-05T01:42:49.698Z,19.42
2018-07-05T01:43:49.703Z,19.38
2018-07-05T01:44:49.672Z,19.43
2018-07-05T01:45:49.667Z,19.42
2018-07-05T01:46:49.653Z,19.38
2018-07-05T01:47:49.636Z,19.35
2018-07-05T01:48:49.628Z,19.25
2018-07-05T01:49:49.641Z,19.31
2018-07-05T01:50:49.648Z,19.32
2018-07-05T01:51:49.606Z,19.25
2018-07-05T01:52:49.585Z,19.15
2018-07-05T01:53:49.563Z,19.13
2018-07-05T01:54:49.560Z,19.18
2018-07-05T01:55:49.553Z,19.21
2018-07-05T01:56:49.529Z,19.21
2018-07-05T01:57:49.524Z,19.20
2018-07-05T01:58:49.506Z,19.21
2018-07-05T01:59:49.492Z,19.15
2018-07-05T02:00:49.484Z,19.20
2018-07-05T02:01:49.470Z,19.10
2018-07-05T02:02:49.457Z,19.02
2018-07-05T02:03:49.437Z,18.98
2018-07-05T02:04:49.435Z,18.99
2018-07-05T02:05:49.420Z,18.97
2018-07-05T02:06:49.493Z,18.95
2018-07-05T02:07:49.390Z,19.02
2018-07-05T02:08:49.396Z,18.99
2018-07-05T02:09:49.380Z,18.94
2018-07-05T02:10:49.377Z,18.92
2018-07-05T02:11:49.401Z,19.06
2018-07-05T02:12:49.339Z,18.98
2018-07-05T02:13:49.314Z,19.02
2018-07-05T02:14:49.305Z,19.05
2018-07-05T02:15:49.292Z,19.08
2018-07-05T02:16:49.278Z,19.06
2018-07-05T02:17:49.282Z,19.06
2018-07-05T02:18:49.257Z,19.01
2018-07-05T02:19:49.240Z,19.14
2018-07-05T02:20:49.226Z,19.05
2018-07-05T02:21:49.227Z,18.99
2018-07-05T02:22:49.222Z,18.90
2018-07-05T02:23:49.192Z,18.98
2018-07-05T02:24:49.180Z,18.99
2018-07-05T02:25:49.172Z,18.87
2018-07-05T02:26:49.211Z,18.87
2018-07-05T02:27:49.145Z,18.92
2018-07-05T02:28:49.130Z,18.86
2018-07-05T02:29:49.116Z,18.79
2018-07-05T02:30:49.101Z,18.77
2018-07-05T02:31:49.095Z,18.84
2018-07-05T02:32:49.075Z,18.79
2018-07-05T02:33:49.090Z,18.79
2018-07-05T02:34:49.057Z,18.80
2018-07-05T02:35:49.065Z,18.77
2018-07-05T02:36:49.062Z,18.87
2018-07-05T02:37:49.015Z,18.95
2018-07-05T02:38:49.006Z,18.92
2018-07-05T02:39:48.989Z,18.90
2018-07-05T02:40:48.990Z,18.97
2018-07-05T02:41:48.969Z,18.95
2018-07-05T02:42:48.952Z,18.91
2018-07-05T02:43:48.949Z,18.86
2018-07-05T02:44:48.928Z,18.80
2018-07-05T02:45:48.912Z,18.79
2018-07-05T02:46:48.907Z,18.79
2018-07-05T02:47:48.895Z,18.73
2018-07-05T02:48:48.889Z,18.74
2018-07-05T02:49:48.872Z,18.77
2018-07-05T02:50:48.858Z,18.61
2018-07-05T02:51:48.849Z,18.64
2018-07-05T02:52:48.844Z,18.58
2018-07-05T02:53:48.823Z,18.64
2018-07-05T02:54:48.801Z,18.64
2018-07-05T02:55:48.837Z,18.52
2018-07-05T02:56:48.778Z,18.55
2018-07-05T02:57:48.766Z,18.61
2018-07-05T02:58:48.755Z,18.59
2018-07-05T02:59:48.750Z,18.44
2018-07-05T03:00:48.724Z,18.49
2018-07-05T03:01:48.708Z,18.34
2018-07-05T03:02:48.706Z,18.36
2018-07-05T03:03:48.702Z,18.31
2018-07-05T03:04:48.712Z,18.44
2018-07-05T03:05:48.673Z,18.31
2018-07-05T03:06:48.649Z,18.33
2018-07-05T03:07:48.636Z,18.43
2018-07-05T03:08:48.616Z,18.37
2018-07-05T03:09:48.616Z,18.39
2018-07-05T03:10:48.619Z,18.31
2018-07-05T03:11:48.582Z,18.34
2018-07-05T03:12:48.574Z,18.29
2018-07-05T03:13:48.551Z,18.33
2018-07-05T03:14:48.551Z,18.25
2018-07-05T03:15:48.534Z,18.27
2018-07-05T03:16:48.527Z,18.22
2018-07-05T03:17:48.510Z,18.18
2018-07-05T03:18:48.489Z,18.22
2018-07-05T03:19:48.490Z,18.21
2018-07-05T03:20:48.483Z,18.22
2018-07-05T03:21:48.454Z,18.22
2018-07-05T03:22:48.440Z,18.22
2018-07-05T03:23:48.427Z,18.27
2018-07-05T03:24:48.412Z,18.28
2018-07-05T03:25:48.421Z,18.25
2018-07-05T03:26:48.390Z,18.25
2018-07-05T03:27:48.377Z,18.21
2018-07-05T03:28:48.370Z,18.17
2018-07-05T03:29:48.355Z,18.17
2018-07-05T03:30:48.343Z,18.19
2018-07-05T03:31:48.329Z,18.19
2018-07-05T03:32:48.311Z,18.22
2018-07-05T03:33:48.300Z,18.15
2018-07-05T03:34:48.307Z,18.15
2018-07-05T03:35:48.279Z,18.07
2018-07-05T03:36:48.253Z,18.04
2018-07-05T03:37:48.240Z,18.06
2018-07-05T03:38:48.235Z,18.00
2018-07-05T03:39:48.231Z,18.03
2018-07-05T03:40:48.210Z,18.02
2018-07-05T03:41:48.191Z,18.10
2018-07-05T03:42:48.179Z,18.10
2018-07-05T03:43:48.169Z,18.03
2018-07-05T03:44:48.166Z,18.03
2018-07-05T03:45:48.149Z,18.03
2018-07-05T03:46:48.122Z,18.06
2018-07-05T03:47:48.109Z,18.15
2018-07-05T03:48:48.097Z,18.17
2018-07-05T03:49:48.086Z,18.19
2018-07-05T03:50:48.091Z,18.24
2018-07-05T03:51:48.056Z,18.27
2018-07-05T03:52:48.048Z,18.31
2018-07-05T03:53:48.040Z,18.33
2018-07-05T03:54:48.018Z,18.33
2018-07-05T03:55:48.014Z,18.33
2018-07-05T03:56:48.000Z,18.21
2018-07-05T03:57:47.979Z,18.31
2018-07-05T03:58:47.968Z,18.33
2018-07-05T03:59:47.950Z,18.37
2018-07-05T04:00:47.955Z,18.42
2018-07-05T04:01:47.937Z,18.43
2018-07-05T04:02:47.920Z,18.57
2018-07-05T04:03:47.936Z,18.54
2018-07-05T04:04:47.902Z,18.55
2018-07-05T04:05:47.885Z,18.59
2018-07-05T04:06:47.864Z,18.59
2018-07-05T04:07:47.853Z,18.67
2018-07-05T04:08:47.835Z,18.77
2018-07-05T04:09:47.834Z,18.82
2018-07-05T04:10:47.823Z,18.65
2018-07-05T04:11:47.822Z,18.64
2018-07-05T04:12:47.790Z,18.59
2018-07-05T04:13:47.793Z,18.54
2018-07-05T04:14:47.767Z,18.58
2018-07-05T04:15:47.755Z,18.62
2018-07-05T04:16:47.741Z,18.57
2018-07-05T04:17:47.722Z,18.58
2018-07-05T04:18:47.714Z,18.55
2018-07-05T04:19:47.704Z,18.61
2018-07-05T04:20:47.716Z,18.58
2018-07-05T04:21:47.685Z,18.61
2018-07-05T04:22:47.667Z,18.58
2018-07-05T04:23:47.639Z,18.59
2018-07-05T04:24:47.635Z,18.76
2018-07-05T04:25:47.640Z,18.79
2018-07-05T04:26:47.616Z,18.87
2018-07-05T04:27:47.588Z,18.91
2018-07-05T04:28:47.581Z,18.79
2018-07-05T04:29:47.564Z,18.79
2018-07-05T04:30:47.569Z,18.79
2018-07-05T04:31:47.545Z,18.62
2018-07-05T04:32:47.549Z,18.67
2018-07-05T04:33:47.514Z,18.62
2018-07-05T04:34:47.513Z,18.76
2018-07-05T04:35:47.499Z,18.73
2018-07-05T04:36:47.478Z,18.68
2018-07-05T04:37:47.465Z,18.62
2018-07-05T04:38:47.459Z,18.61
2018-07-05T04:39:47.442Z,18.67
2018-07-05T04:40:47.443Z,18.68
2018-07-05T04:41:47.442Z,18.67
2018-07-05T04:42:47.411Z,18.55
2018-07-05T04:43:47.458Z,18.55
2018-07-05T04:44:47.406Z,18.57
2018-07-05T04:45:47.376Z,18.59
2018-07-05T04:46:47.372Z,18.59
2018-07-05T04:47:47.369Z,18.58
2018-07-05T04:48:47.332Z,18.65
2018-07-05T04:49:47.317Z,18.64
2018-07-05T04:50:47.310Z,18.62
2018-07-05T04:51:47.321Z,18.67
2018-07-05T04:52:47.283Z,18.64
2018-07-05T04:53:47.291Z,18.72
2018-07-05T04:54:47.272Z,18.68
2018-07-05T04:55:47.249Z,18.79
2018-07-05T04:56:47.238Z,18.76
2018-07-05T04:57:47.214Z,18.86
2018-07-05T04:58:47.209Z,18.95
2018-07-05T04:59:47.191Z,18.90
2018-07-05T05:00:47.202Z,18.91
2018-07-05T05:01:47.173Z,18.84
2018-07-05T05:02:47.165Z,19.02
2018-07-05T05:03:47.138Z,18.91
2018-07-05T05:04:47.131Z,18.87
2018-07-05T05:05:47.154Z,19.06
2018-07-05T05:06:47.104Z,19.06
2018-07-05T05:07:47.084Z,18.99
2018-07-05T05:08:47.145Z,18.99
2018-07-05T05:09:47.118Z,19.11
2018-07-05T05:10:47.102Z,19.10
2018-07-05T05:11:47.085Z,19.11
2018-07-05T05:12:47.046Z,19.01
2018-07-05T05:13:47.031Z,18.92
2018-07-05T05:14:47.022Z,19.01
2018-07-05T05:15:46.995Z,18.99
2018-07-05T05:16:47.002Z,18.97
2018-07-05T05:17:46.977Z,18.97
2018-07-05T05:18:46.980Z,18.91
2018-07-05T05:19:46.955Z,18.94
2018-07-05T05:20:46.964Z,18.97
2018-07-05T05:21:46.979Z,18.98
2018-07-05T05:22:46.925Z,19.05
2018-07-05T05:23:46.895Z,19.01
2018-07-05T05:24:46.894Z,18.99
2018-07-05T05:25:46.888Z,19.06
2018-07-05T05:26:46.891Z,19.14
2018-07-05T05:27:46.854Z,19.21
2018-07-05T05:28:46.869Z,19.17
2018-07-05T05:29:46.836Z,19.29
2018-07-05T05:30:46.849Z,19.29
2018-07-05T05:31:46.792Z,19.33
2018-07-05T05:32:46.812Z,19.24
2018-07-05T05:33:46.777Z,19.18
2018-07-05T05:34:46.772Z,19.33
2018-07-05T05:35:46.747Z,19.32
2018-07-05T05:36:46.774Z,19.46
2018-07-05T05:37:46.744Z,19.43
2018-07-05T05:38:46.750Z,19.53
2018-07-05T05:39:46.703Z,19.55
2018-07-05T05:40:46.682Z,19.48
2018-07-05T05:41:46.673Z,19.35
2018-07-05T05:42:46.691Z,19.35
2018-07-05T05:43:46.664Z,19.39
2018-07-05T05:44:46.645Z,19.38
2018-07-05T05:45:46.635Z,19.39
2018-07-05T05:46:46.711Z,19.46
2018-07-05T05:47:46.647Z,19.36
2018-07-05T05:48:46.625Z,19.35
2018-07-05T05:49:46.588Z,19.24
2018-07-05T05:50:46.575Z,19.38
2018-07-05T05:51:46.572Z,19.21
2018-07-05T05:52:46.868Z,19.20
2018-07-05T05:53:46.551Z,19.21
2018-07-05T05:54:46.515Z,19.38
2018-07-05T05:55:46.537Z,19.39
2018-07-05T05:56:46.503Z,19.40
2018-07-05T05:57:46.506Z,19.46
2018-07-05T05:58:46.496Z,19.42
2018-07-05T05:59:46.481Z,19.51
2018-07-05T06:00:46.443Z,19.63
2018-07-05T06:01:46.492Z,19.68
2018-07-05T06:02:46.412Z,19.78
2018-07-05T06:03:46.443Z,19.87
2018-07-05T06:04:46.404Z,19.98
2018-07-05T06:05:46.416Z,20.02
2018-07-05T06:06:46.446Z,20.03
2018-07-05T06:07:46.370Z,20.08
2018-07-05T06:08:46.348Z,20.08
2018-07-05T06:09:46.351Z,20.02
2018-07-05T06:10:46.315Z,19.91
2018-07-05T06:11:46.325Z,19.95
2018-07-05T06:12:46.319Z,20.02
2018-07-05T06:13:46.275Z,20.02
2018-07-05T06:14:46.282Z,20.10
2018-07-05T06:15:46.285Z,20.18
2018-07-05T06:16:46.262Z,20.35
2018-07-05T06:17:46.281Z,20.62
2018-07-05T06:18:46.267Z,20.77
2018-07-05T06:19:46.228Z,20.93
2018-07-05T06:20:46.219Z,20.95
2018-07-05T06:21:46.197Z,20.79
2018-07-05T06:22:46.202Z,20.87
2018-07-05T06:23:46.158Z,20.76
2018-07-05T06:24:46.156Z,20.71
2018-07-05T06:25:46.164Z,20.81
2018-07-05T06:26:46.172Z,20.98
2018-07-05T06:27:46.123Z,21.19
2018-07-05T06:28:46.192Z,21.38
2018-07-05T06:29:46.114Z,21.57
2018-07-05T06:30:46.096Z,21.71
2018-07-05T06:31:46.086Z,22.04
2018-07-05T06:32:46.072Z,22.35
2018-07-05T06:33:46.075Z,22.41
2018-07-05T06:34:46.051Z,22.52
2018-07-05T06:35:46.051Z,22.86
2018-07-05T06:36:46.055Z,23.46
2018-07-05T06:37:46.034Z,23.90
2018-07-05T06:38:46.005Z,24.54
2018-07-05T06:39:46.011Z,25.49
2018-07-05T06:40:46.000Z,26.52
2018-07-05T06:41:46.006Z,26.81
2018-07-05T06:42:45.953Z,26.99
2018-07-05T06:43:46.005Z,27.66
2018-07-05T06:44:45.947Z,28.04
2018-07-05T06:45:45.972Z,27.39
2018-07-05T06:46:46.049Z,27.91
2018-07-05T06:47:45.912Z,28.51
2018-07-05T06:48:45.890Z,28.62
2018-07-05T06:49:45.878Z,28.56
2018-07-05T06:50:45.876Z,28.88
2018-07-05T06:51:45.856Z,29.50
2018-07-05T06:52:45.860Z,29.90
2018-07-05T06:53:45.841Z,30.59
2018-07-05T06:54:45.877Z,31.18
2018-07-05T06:55:45.828Z,31.43
2018-07-05T06:56:45.944Z,31.28
2018-07-05T06:57:45.849Z,30.57
2018-07-05T06:58:45.836Z,30.80
2018-07-05T06:59:45.831Z,31.04
2018-07-05T07:00:45.812Z,30.56
2018-07-05T07:01:45.777Z,30.99
2018-07-05T07:02:45.765Z,31.02
2018-07-05T07:03:45.759Z,30.67
2018-07-05T07:04:45.767Z,30.36
2018-07-05T07:05:45.755Z,30.21
2018-07-05T07:06:45.769Z,30.07
2018-07-05T07:07:45.719Z,29.82
2018-07-05T07:08:45.734Z,30.54
2018-07-05T07:09:45.722Z,30.68
2018-07-05T07:10:45.705Z,30.54
2018-07-05T07:11:45.707Z,31.17
2018-07-05T07:12:45.698Z,30.93
2018-07-05T07:13:45.704Z,30.96
2018-07-05T07:14:45.699Z,31.15
2018-07-05T07:15:45.716Z,31.87
2018-07-05T07:16:45.671Z,32.48
2018-07-05T07:17:45.659Z,32.10
2018-07-05T07:18:45.646Z,31.87
2018-07-05T07:19:45.659Z,32.24
2018-07-05T07:20:45.647Z,32.74
2018-07-05T07:21:45.663Z,32.67
2018-07-05T07:22:45.684Z,32.24
2018-07-05T07:23:45.643Z,32.27
2018-07-05T07:24:45.629Z,31.39
2018-07-05T07:25:45.636Z,31.57
2018-07-05T07:26:45.607Z,31.15
2018-07-05T07:27:45.574Z,30.62
2018-07-05T07:28:45.585Z,30.67
2018-07-05T07:29:45.588Z,31.02
2018-07-05T07:30:45.592Z,30.80
2018-07-05T07:31:45.614Z,30.87
2018-07-05T07:32:45.570Z,31.13
2018-07-05T07:33:45.607Z,31.13
2018-07-05T07:34:45.554Z,30.59
2018-07-05T07:35:45.565Z,30.56
2018-07-05T07:36:45.560Z,30.03
2018-07-05T07:37:45.644Z,30.19
2018-07-05T07:38:45.527Z,29.62
2018-07-05T07:39:45.546Z,29.37
2018-07-05T07:40:45.492Z,28.62
2018-07-05T07:41:45.666Z,29.31
2018-07-05T07:42:45.540Z,29.29
2018-07-05T07:43:45.491Z,29.59
2018-07-05T07:44:45.488Z,29.78
2018-07-05T07:45:45.541Z,30.19
2018-07-05T07:46:45.522Z,30.59
2018-07-05T07:47:45.458Z,30.93
2018-07-05T07:48:46.118Z,30.38
2018-07-05T07:49:45.458Z,30.07
2018-07-05T07:50:45.462Z,29.65
2018-07-05T07:51:45.512Z,29.20
2018-07-05T07:52:45.480Z,29.07
2018-07-05T07:53:45.473Z,28.75
2018-07-05T07:54:45.431Z,28.31
2018-07-05T07:55:45.455Z,28.21
2018-07-05T07:56:45.419Z,27.64
2018-07-05T07:57:45.408Z,27.73
2018-07-05T07:58:45.408Z,27.96
2018-07-05T07:59:45.398Z,28.31
2018-07-05T08:00:45.398Z,28.29
2018-07-05T08:01:45.494Z,28.48
2018-07-05T08:02:46.108Z,28.47
2018-07-05T08:03:45.402Z,28.26
2018-07-05T08:04:45.390Z,27.94
2018-07-05T08:05:45.383Z,27.61
2018-07-05T08:06:45.406Z,27.43
2018-07-05T08:07:45.366Z,27.29
2018-07-05T08:08:45.364Z,27.29
2018-07-05T08:09:45.460Z,27.05
2018-07-05T08:10:45.354Z,27.01
2018-07-05T08:11:45.375Z,26.83
2018-07-05T08:12:45.341Z,26.72
2018-07-05T08:13:45.329Z,26.68
2018-07-05T08:14:45.326Z,26.86
2018-07-05T08:15:45.324Z,27.05
2018-07-05T08:16:45.335Z,27.01
2018-07-05T08:17:45.329Z,27.05
2018-07-05T08:18:45.381Z,26.84
2018-07-05T08:19:45.312Z,26.74
2018-07-05T08:20:45.342Z,26.80
2018-07-05T08:21:45.321Z,26.87
2018-07-05T08:22:45.309Z,26.95
2018-07-05T08:23:45.308Z,26.84
2018-07-05T08:24:45.307Z,26.64
2018-07-05T08:25:45.279Z,26.47
2018-07-05T08:26:45.278Z,26.47
2018-07-05T08:27:45.346Z,26.43
2018-07-05T08:28:45.319Z,26.54
2018-07-05T08:29:45.344Z,25.77
2018-07-05T08:30:45.262Z,25.47
2018-07-05T08:31:45.263Z,25.42
2018-07-05T08:32:45.652Z,25.15
2018-07-05T08:33:45.479Z,24.95
2018-07-05T08:34:45.565Z,24.68
2018-07-05T08:35:45.220Z,24.88
2018-07-05T08:36:45.225Z,25.01
2018-07-05T08:37:45.307Z,25.38
2018-07-05T08:38:45.267Z,25.64
2018-07-05T08:39:45.212Z,25.82
2018-07-05T08:40:45.191Z,26.08
2018-07-05T08:41:45.216Z,26.12
2018-07-05T08:42:45.284Z,26.15
2018-07-05T08:43:45.202Z,26.18
2018-07-05T08:46:15.448Z,26.11
